This is the latest recevied weather packets stored in our database for station/object KI7CSN-13. If no packets are shown the sender has not sent any weather packets the latest 1 day(s).
| Time | Temp. | Humidity | Pressure | Rain* | Wind** | Luminosity | Snow |
|---|---|---|---|---|---|---|---|
| 1778011360 | 17.22° C | 31% | 979 hPa | 0 mm | 4.02 m/s, 91° | - | - |
| 1778011060 | 17.22° C | 31% | 979 hPa | 0 mm | 3.13 m/s, 171° | - | - |
| 1778010760 | 18.33° C | 33% | 979 hPa | 0 mm | 2.24 m/s, 196° | - | - |
| 1778010460 | 17.78° C | 33% | 979 hPa | 0 mm | 3.58 m/s, 196° | - | - |
| 1778010160 | 19.44° C | 31% | 979 hPa | 0 mm | 4.92 m/s, 216° | - | - |
| 1778009860 | 16.67° C | 35% | 979.3 hPa | 0 mm | 2.24 m/s, 149° | - | - |
| 1778009560 | 17.22° C | 33% | 979.1 hPa | 0 mm | 4.02 m/s, 174° | - | - |
| 1778009260 | 17.22° C | 33% | 979 hPa | 0 mm | 4.02 m/s, 172° | - | - |
| 1778008960 | 17.22° C | 33% | 979 hPa | 0 mm | 3.58 m/s, 170° | - | - |
| 1778008660 | 17.22° C | 33% | 979.1 hPa | 0 mm | 4.47 m/s, 229° | - | - |
| 1778008360 | 18.33° C | 31% | 979 hPa | 0 mm | 4.92 m/s, 203° | - | - |
| 1778008060 | 17.22° C | 33% | 979.3 hPa | 0 mm | 3.13 m/s, 181° | - | - |
| 1778007760 | 17.22° C | 33% | 979.1 hPa | 0 mm | 4.92 m/s, 194° | - | - |
| 1778007460 | 17.78° C | 33% | 979.1 hPa | 0 mm | 5.36 m/s, 158° | - | - |
| 1778007160 | 16.67° C | 35% | 979.1 hPa | 0 mm | 5.36 m/s, 196° | - | - |
| 1778006860 | 16.67° C | 35% | 979.1 hPa | 0 mm | 5.81 m/s, 149° | - | - |
| 1778006560 | 17.22° C | 33% | 979.1 hPa | 0 mm | 3.58 m/s, 143° | - | - |
| 1778006260 | 16.67° C | 35% | 979.4 hPa | 0 mm | 2.68 m/s, 171° | - | - |
| 1778005960 | 16.11° C | 36% | 979.4 hPa | 0 mm | 3.13 m/s, 172° | - | - |
| 1778005660 | 16.11° C | 36% | 979.4 hPa | 0 mm | 5.36 m/s, 160° | - | - |
| 1778005360 | 15.56° C | 36% | 979.4 hPa | 0 mm | 8.05 m/s, 170° | - | - |
| 1778005060 | 16.11° C | 35% | 979.3 hPa | 0 mm | 4.02 m/s, 140° | - | - |
| 1778004760 | 16.11° C | 36% | 979.3 hPa | 0 mm | 4.02 m/s, 115° | - | - |
| 1778004460 | 15.56° C | 34% | 979.4 hPa | 0 mm | 8.05 m/s, 184° | - | - |
| 1778004160 | 17.22° C | 33% | 979.4 hPa | 0 mm | 3.58 m/s, 59° | - | - |
* Rain latest hour (hover to see other rain measurements)
** Current wind speed in m/s (hover to see current wind gust speed)